Latest Weather Observations for Onslow Airport

IDW60801

Issued at 8:05 pm WST Wednesday 1 October 2014 (issued every 30 minutes, with the page automatically refreshed every 10 minutes)

About weather observations | Map of weather stations | Latest weather observations for WA | Other Formats
Station Details ID: 005017 Name: ONSLOW AIRPORT Lat: -21.67 Lon: 115.11 Height: 10.5 m
Data from the previous 72 hours. | See also: Recent months at Onslow Airport
Date/Time
WST
Temp
°C
App
Temp
°C
Dew
Point
Rel
Hum
%
Delta-T
°C
Wind Press
QNH
hPa
Press
MSL
hPa
Rain
since 9 am
mm
Dir
 
Spd
km/h
Gust
km/h
Spd
kts
Gust
kts
01/08:00pm 23.5 22.2 15.8 62 4.6 WSW 17 22 9 12 1015.4 1015.4 0.0
01/07:30pm 23.8 23.0 17.1 66 4.1 WSW 17 20 9 11 1015.2 1015.2 0.0
01/07:00pm 23.8 22.8 17.5 68 3.9 W 19 24 10 13 1014.9 1014.9 0.0
01/06:30pm 24.1 23.2 18.1 69 3.8 W 20 26 11 14 1014.4 1014.4 0.0
01/06:00pm 24.4 22.4 18.3 69 3.8 W 26 35 14 19 1014.1 1014.1 0.0
01/05:30pm 25.1 23.1 18.3 66 4.3 W 26 33 14 18 1013.8 1013.8 0.0
01/05:00pm 25.8 23.4 18.2 63 4.8 WNW 28 33 15 18 1013.6 1013.6 0.0
01/04:30pm 27.1 24.8 17.6 56 6.0 WNW 26 32 14 17 1013.6 1013.6 0.0
01/04:00pm 27.5 24.6 17.1 53 6.5 WNW 28 35 15 19 1013.4 1013.4 0.0
01/03:30pm 28.5 26.0 17.1 50 7.2 WNW 26 32 14 17 1013.5 1013.5 0.0
01/03:00pm 29.0 26.4 16.9 48 7.6 WNW 26 32 14 17 1013.6 1013.6 0.0
01/02:30pm 28.7 25.1 16.3 47 7.7 WNW 30 35 16 19 1013.8 1013.8 0.0
01/02:00pm 29.0 23.9 13.2 37 9.4 WNW 32 37 17 20 1014.1 1014.1 0.0
01/01:30pm 28.9 25.2 16.1 46 7.9 WNW 30 37 16 20 1014.3 1014.3 0.0
01/01:00pm 27.7 23.8 15.4 47 7.5 WNW 30 35 16 19 1014.8 1014.8 0.0
01/12:30pm 28.2 25.5 15.5 46 7.8 WNW 24 30 13 16 1015.2 1015.2 0.0
01/12:00pm 27.9 26.7 17.4 52 6.6 WNW 20 26 11 14 1015.5 1015.5 0.0
01/11:30am 27.9 27.4 17.7 53 6.4 WNW 17 24 9 13 1015.8 1015.8 0.0
01/11:00am 27.4 26.4 17.6 55 6.2 WNW 19 22 10 12 1016.1 1016.1 0.0
01/10:30am 27.5 26.1 14.5 45 7.8 SW 15 20 8 11 1016.3 1016.3 0.0
01/10:00am 26.7 25.2 14.1 46 7.5 SSW 15 20 8 11 1016.5 1016.5 0.0
01/09:30am 26.1 25.0 15.2 51 6.6 SSW 15 20 8 11 1016.4 1016.4 0.0
01/09:00am 24.6 24.0 16.6 61 4.9 S 15 20 8 11 1016.4 1016.4 0.0
01/08:30am 23.9 23.1 17.2 66 4.1 SSE 17 20 9 11 1016.2 1016.2 0.0
01/08:00am 22.2 21.2 16.7 71 3.4 S 17 20 9 11 1016.1 1016.1 0.0
01/07:30am 20.8 20.5 16.4 76 2.7 S 13 17 7 9 1015.8 1015.8 0.0
01/07:00am 19.8 19.5 16.4 81 2.0 S 13 17 7 9 1015.2 1015.2 0.0
01/06:30am 18.4 17.2 16.0 86 1.4 SW 17 20 9 11 1014.2 1014.2 0.0
01/06:00am 17.7 16.3 15.5 87 1.3 SW 17 20 9 11 1014.4 1014.4 0.0
01/05:30am 17.8 17.6 15.8 88 1.2 SSW 11 13 6 7 1014.8 1014.8 0.0
01/05:00am 17.2 17.1 15.0 87 1.3 SW 9 11 5 6 1014.5 1014.5 0.0
01/04:30am 17.4 17.3 15.0 86 1.4 SSW 9 13 5 7 1014.5 1014.5 0.0
01/04:00am 18.0 18.1 15.4 85 1.5 SSW 9 11 5 6 1014.3 1014.3 0.0
01/03:30am 18.8 18.8 16.2 85 1.6 S 11 15 6 8 1014.3 1014.3 0.0
01/03:00am 18.9 18.5 16.3 85 1.6 S 13 15 7 8 1014.4 1014.4 0.0
01/02:30am 19.1 19.1 16.3 84 1.7 S 11 13 6 7 1014.5 1014.5 0.0
01/02:00am 19.2 18.8 16.2 83 1.8 S 13 13 7 7 1014.7 1014.7 0.0
01/01:30am 19.3 19.7 16.2 82 1.9 SSW 9 13 5 7 1014.9 1014.9 0.0
01/01:00am 19.6 19.2 16.3 81 2.0 SW 13 15 7 8 1014.9 1014.9 0.0
01/12:30am 20.4 19.8 16.6 79 2.3 SW 15 19 8 10 1015.0 1015.0 0.0
01/12:00am 20.4 20.0 16.2 77 2.5 WSW 13 17 7 9 1015.0 1015.0 0.0
 
Date/Time
WST
Temp
°C
App
Temp
°C
Dew
Point
Rel
Hum
%
Delta-T
°C
Wind Press
QNH
hPa
Press
MSL
hPa
Rain
since 9 am
mm
Dir
 
Spd
km/h
Gust
km/h
Spd
kts
Gust
kts
30/11:30pm 20.7 19.6 16.3 76 2.6 WSW 17 20 9 11 1015.2 1015.2 0.0
30/11:00pm 20.8 20.0 16.2 75 2.8 WSW 15 17 8 9 1015.4 1015.4 0.0
30/10:30pm 21.5 21.2 17.3 77 2.6 WSW 15 17 8 9 1015.5 1015.5 0.0
30/10:00pm 21.3 20.9 17.1 77 2.6 W 15 19 8 10 1015.3 1015.3 0.0
30/09:30pm 21.3 20.6 16.5 74 2.9 W 15 17 8 9 1015.2 1015.2 0.0
30/09:00pm 21.4 20.5 15.9 71 3.3 W 15 17 8 9 1015.1 1015.1 0.0
30/08:30pm 21.5 21.1 15.1 67 3.8 W 11 15 6 8 1015.0 1015.0 0.0
30/08:00pm 22.2 21.5 15.5 66 4.0 W 13 15 7 8 1014.8 1014.8 0.0
30/07:30pm 22.8 22.1 16.4 67 3.9 W 15 20 8 11 1014.6 1014.6 0.0
30/07:00pm 23.1 21.9 17.1 69 3.7 W 19 22 10 12 1014.2 1014.2 0.0
30/06:30pm 23.5 22.0 16.8 66 4.1 W 20 26 11 14 1013.8 1013.8 0.0
30/06:00pm 24.3 21.9 16.3 61 4.9 W 24 30 13 16 1013.5 1013.5 0.0
30/05:30pm 25.2 21.7 14.6 51 6.3 W 26 32 14 17 1013.3 1013.3 0.0
30/05:00pm 25.9 22.6 14.1 48 7.0 W 24 32 13 17 1012.9 1012.9 0.0
30/04:30pm 27.4 24.1 14.1 44 7.9 W 24 30 13 16 1012.8 1012.8 0.0
30/04:00pm 27.3 23.0 13.3 42 8.2 W 28 32 15 17 1012.7 1012.7 0.0
30/03:30pm 27.9 24.2 13.8 42 8.4 W 26 30 14 16 1012.6 1012.6 0.0
30/03:00pm 29.0 24.8 11.1 33 10.3 WNW 24 28 13 15 1012.7 1012.7 0.0
30/02:30pm 30.9 26.6 8.0 24 12.6 WNW 20 24 11 13 1012.7 1012.7 0.0
30/02:00pm 30.0 25.8 8.4 26 11.9 W 20 26 11 14 1012.9 1012.9 0.0
30/01:30pm 29.3 25.6 11.4 33 10.3 W 22 32 12 17 1013.3 1013.3 0.0
30/01:00pm 28.3 24.9 13.8 41 8.6 W 24 32 13 17 1013.6 1013.6 0.0
30/12:30pm 28.2 23.3 11.3 35 9.7 WNW 28 33 15 18 1014.1 1014.1 0.0
30/12:00pm 28.8 23.0 7.9 27 11.3 WNW 28 33 15 18 1014.6 1014.6 0.0
30/11:30am 27.9 24.2 12.7 39 8.9 WNW 24 30 13 16 1015.0 1015.0 0.0
30/11:00am 27.9 25.4 13.4 40 8.6 WNW 19 24 10 13 1015.2 1015.2 0.0
30/10:30am 28.7 26.5 10.8 33 10.2 W 13 20 7 11 1015.3 1015.3 0.0
30/10:00am 27.4 24.9 9.7 33 9.8 SSW 13 17 7 9 1015.5 1015.5 0.0
30/09:30am 25.5 23.9 10.1 38 8.5 SW 9 15 5 8 1015.7 1015.7 0.0
30/09:00am 23.9 21.6 11.6 46 6.9 SW 15 19 8 10 1015.8 1015.8 0.0
30/08:30am 22.4 19.5 12.4 53 5.7 SW 19 20 10 11 1015.6 1015.6 0.0
30/08:00am 20.8 18.0 12.5 59 4.7 SSW 19 24 10 13 1015.4 1015.4 0.0
30/07:30am 19.3 16.5 12.6 65 3.8 SW 19 24 10 13 1015.3 1015.3 0.0
30/07:00am 18.4 15.6 12.6 69 3.2 SW 19 22 10 12 1015.1 1015.1 0.0
30/06:30am 17.8 14.8 12.5 71 2.9 SW 20 26 11 14 1014.9 1014.9 0.0
30/06:00am 17.5 14.7 12.6 73 2.7 SW 19 22 10 12 1014.7 1014.7 0.0
30/05:30am 17.4 15.0 12.5 73 2.7 SW 17 20 9 11 1014.6 1014.6 0.0
30/05:00am 17.1 15.3 12.0 72 2.8 SW 13 17 7 9 1014.6 1014.6 0.0
30/04:30am 17.6 15.0 12.1 70 3.0 SW 17 20 9 11 1014.4 1014.4 0.0
30/04:00am 18.0 15.5 12.2 69 3.2 SW 17 24 9 13 1014.2 1014.2 0.0
30/03:30am 18.0 15.8 12.2 69 3.2 SW 15 20 8 11 1014.1 1014.1 0.0
30/03:00am 18.5 15.7 12.5 68 3.3 SW 19 24 10 13 1014.1 1014.1 0.0
30/02:30am 18.5 16.5 12.7 69 3.2 SW 15 20 8 11 1014.0 1014.0 0.0
30/02:00am 18.9 17.0 12.9 68 3.4 SW 15 20 8 11 1014.2 1014.2 0.0
30/01:30am 19.3 16.7 13.2 68 3.5 SW 19 22 10 12 1014.3 1014.3 0.0
30/01:00am 19.6 17.1 13.5 68 3.5 SW 19 24 10 13 1014.5 1014.5 0.0
30/12:30am 20.0 17.4 13.7 67 3.6 SW 20 28 11 15 1014.7 1014.7 0.0
30/12:00am 20.1 17.6 14.0 68 3.5 SW 20 26 11 14 1014.8 1014.8 0.0
 
Date/Time
WST
Temp
°C
App
Temp
°C
Dew
Point
Rel
Hum
%
Delta-T
°C
Wind Press
QNH
hPa
Press
MSL
hPa
Rain
since 9 am
mm
Dir
 
Spd
km/h
Gust
km/h
Spd
kts
Gust
kts
29/11:30pm 20.6 17.8 14.3 67 3.7 SW 22 28 12 15 1015.1 1015.1 0.0
29/11:00pm 20.9 17.9 14.8 68 3.6 SW 24 32 13 17 1015.2 1015.2 0.0
29/10:30pm 21.5 18.9 14.9 66 3.9 SW 22 32 12 17 1015.2 1015.2 0.0
29/10:00pm 22.1 18.9 14.2 61 4.6 SW 24 33 13 18 1015.4 1015.4 0.0
29/09:30pm 22.6 19.1 13.4 56 5.3 SW 24 33 13 18 1015.6 1015.6 0.0
29/09:00pm 22.5 20.4 13.6 57 5.2 WSW 17 22 9 12 1015.7 1015.7 0.0
29/08:30pm 22.8 20.7 13.6 56 5.3 WSW 17 22 9 12 1015.5 1015.5 0.0
29/08:00pm 22.6 20.6 13.9 58 5.1 W 17 20 9 11 1015.3 1015.3 0.0
29/07:30pm 22.9 21.6 15.7 64 4.3 W 17 20 9 11 1015.1 1015.1 0.0
29/07:00pm 23.4 21.4 15.5 61 4.7 W 20 26 11 14 1014.8 1014.8 0.0
29/06:30pm 24.1 21.3 15.3 58 5.3 W 24 30 13 16 1014.4 1014.4 0.0
29/06:00pm 25.5 22.1 13.7 48 6.9 W 24 28 13 15 1014.1 1014.1 0.0
29/05:30pm 27.2 23.0 11.2 36 9.1 W 24 30 13 16 1013.8 1013.8 0.0
29/05:00pm 28.1 23.5 11.2 35 9.7 W 26 32 14 17 1013.7 1013.7 0.0
29/04:30pm 28.5 24.1 11.6 35 9.7 W 26 30 14 16 1013.5 1013.5 0.0
29/04:00pm 29.3 24.1 10.4 31 10.7 W 28 33 15 18 1013.3 1013.3 0.0
29/03:30pm 30.2 23.8 8.6 26 11.9 W 32 44 17 24 1013.1 1013.1 0.0
29/03:00pm 30.7 24.8 9.0 26 12.1 W 30 37 16 20 1013.2 1013.2 0.0
29/02:30pm 30.2 25.2 12.1 32 10.6 W 30 37 16 20 1013.5 1013.5 0.0
29/02:00pm 30.1 25.1 13.4 36 10.0 W 32 39 17 21 1013.7 1013.7 0.0
29/01:30pm 29.7 25.1 13.5 37 9.7 W 30 39 16 21 1014.0 1014.0 0.0
29/01:00pm 29.8 25.6 13.5 36 9.7 W 28 35 15 19 1014.3 1014.3 0.0
29/12:30pm 28.9 24.7 13.6 39 9.1 WNW 28 37 15 20 1014.9 1014.9 0.0
29/12:00pm 30.2 26.2 11.7 32 10.7 WNW 24 30 13 16 1015.2 1015.2 0.0
29/11:30am 30.0 26.1 7.2 24 12.3 SSW 17 20 9 11 1015.6 1015.6 0.0
29/11:00am 27.8 23.3 7.1 27 11.0 SW 20 26 11 14 1016.1 1016.1 0.0
29/10:30am 27.5 23.0 6.8 27 10.9 SSW 20 26 11 14 1016.4 1016.4 0.0
29/10:00am 26.1 20.9 7.2 30 10.0 SW 24 30 13 16 1016.6 1016.6 0.0
29/09:30am 25.5 20.6 6.7 30 9.8 SSW 22 28 12 15 1016.5 1016.5 0.0
29/09:00am 23.8 18.8 6.6 33 8.9 SSW 22 26 12 14 1016.7 1016.7 0.0
29/08:30am 22.6 17.8 7.2 37 8.0 SSW 22 28 12 15 1016.7 1016.7 0.0
29/08:00am 20.6 14.9 6.9 41 6.9 SSW 26 32 14 17 1016.4 1016.4 0.0
29/07:30am 19.4 14.3 7.5 46 6.1 SSW 24 32 13 17 1016.0 1016.0 0.0
29/07:00am 18.1 12.2 7.5 50 5.4 SSW 28 35 15 19 1015.6 1015.6 0.0
29/06:30am 17.3 12.1 7.1 51 5.1 SSW 24 28 13 15 1015.6 1015.6 0.0
29/06:00am 17.3 12.1 7.1 51 5.1 SSW 24 32 13 17 1015.6 1015.6 0.0
29/05:30am 17.6 12.7 7.1 50 5.2 SSW 22 30 12 16 1015.2 1015.2 0.0
29/05:00am 17.9 13.0 7.0 49 5.4 SSW 22 28 12 15 1015.0 1015.0 0.0
29/04:30am 18.2 13.9 7.9 51 5.3 SW 20 26 11 14 1015.0 1015.0 0.0
29/04:00am 18.8 13.7 7.6 48 5.7 SSW 24 32 13 17 1014.8 1014.8 0.0
29/03:30am 18.9 13.9 8.0 49 5.6 SW 24 30 13 16 1014.8 1014.8 0.0
29/03:00am 19.2 14.8 8.8 51 5.4 SW 22 30 12 16 1014.7 1014.7 0.0
29/02:30am 19.5 15.3 9.7 53 5.2 SSW 22 28 12 15 1014.8 1014.8 0.0
29/02:00am 19.9 15.9 10.6 55 5.0 SSW 22 28 12 15 1014.9 1014.9 0.0
29/01:30am 20.1 16.3 11.3 57 4.8 SSW 22 30 12 16 1015.0 1015.0 0.0
29/01:00am 20.4 16.8 11.9 58 4.7 SSW 22 30 12 16 1015.0 1015.0 0.0
29/12:30am 20.6 17.6 12.6 60 4.5 SW 20 24 11 13 1015.3 1015.3 0.0
29/12:00am 21.0 17.7 12.9 60 4.6 SSW 22 30 12 16 1015.2 1015.2 0.0
 
Date/Time
WST
Temp
°C
App
Temp
°C
Dew
Point
Rel
Hum
%
Delta-T
°C
Wind Press
QNH
hPa
Press
MSL
hPa
Rain
since 9 am
mm
Dir
 
Spd
km/h
Gust
km/h
Spd
kts
Gust
kts
28/11:30pm 21.3 17.9 13.7 62 4.4 SW 24 33 13 18 1015.6 1015.6 0.0
28/11:00pm 21.6 18.0 14.3 63 4.3 SW 26 32 14 17 1015.8 1015.8 0.0
28/10:30pm 21.9 18.8 14.5 63 4.3 WSW 24 30 13 16 1016.0 1016.0 0.0
28/10:00pm 22.4 19.7 14.5 61 4.6 SW 22 28 12 15 1015.9 1015.9 0.0
28/09:30pm 22.2 20.6 15.1 64 4.2 WSW 17 20 9 11 1016.0 1016.0 0.0
28/09:00pm 22.9 21.1 16.0 65 4.2 W 20 24 11 13 1015.9 1015.9 0.0
28/08:30pm 22.9 22.4 17.8 73 3.2 W 17 22 9 12 1015.6 1015.6 0.0

Other Formats:

Comma delimited format used in spreadsheet applications
http://www.bom.gov.au/fwo/IDW60801/IDW60801.95305.axf

JavaScript Object Notation format (JSON) in row-major order
http://www.bom.gov.au/fwo/IDW60801/IDW60801.95305.json